Check out our new BloomSky Weather System.

Active alerts

Houston, TX
  Details for Houston, TX Dense Fog Advisory


Thunder radar  blitzortung!


Rain radar more information rain snow radar


Visit our other weather sites:

Template documentation
and downloads

And another site



Weather Underground History page Text

Daily Summary for July 16, 2017 Units:  English    Metric   Both
« Previous Day
Next Day »
Daily Weekly Monthly Yearly Custom
  High: Low: Average:
Temperature: 93.6 °F 72.9 °F 82.2 °F
Dew Point: 78.1 °F 72.5 °F 75 °F
Humidity: 100 % 55 % 81 %
Wind Speed: 7.0 mph 0.0 mph 1.1 mph
Wind Gust: 9.0 mph - -
Wind:- - SW
Pressure: 29.98 in 29.83 in -
Precipitation: 0.00 in    
Historical Graphs
 
 
Tabular Data for July 16, 2017
Time Temperature Dew Point Pressure Wind Wind Speed Wind Gust Humidity Rainfall Rate (Hourly)
00:00 73.9 °F 73.6 °F 29.98 in Calm   1.0 mph 99 % 0.00 in
00:06 73.9 °F 73.6 °F 29.98 in Calm     99 % 0.00 in
00:11 73.8 °F 73.4 °F 29.97 in Calm     99 % 0.00 in
00:16 73.8 °F 73.4 °F 29.97 in Calm     99 % 0.00 in
00:21 73.9 °F 73.9 °F 29.97 in Calm     100 % 0.00 in
00:26 73.9 °F 73.9 °F 29.97 in Calm     100 % 0.00 in
00:31 73.9 °F 73.6 °F 29.97 in Calm     99 % 0.00 in
00:36 73.8 °F 73.4 °F 29.97 in Calm     99 % 0.00 in
00:41 73.9 °F 73.9 °F 29.97 in Calm   1.0 mph 100 % 0.00 in
00:46 73.8 °F 73.4 °F 29.97 in Calm   1.0 mph 99 % 0.00 in
00:51 73.8 °F 73.4 °F 29.97 in Calm   1.0 mph 99 % 0.00 in
00:56 73.6 °F 73.2 °F 29.97 in Calm   1.0 mph 99 % 0.00 in
01:01 73.6 °F 73.2 °F 29.97 in Calm     99 % 0.00 in
01:06 73.6 °F 73.6 °F 29.97 in Calm   1.0 mph 100 % 0.00 in
01:11 73.8 °F 73.8 °F 29.97 in Calm   1.0 mph 100 % 0.00 in
01:16 73.8 °F 73.8 °F 29.97 in NE 1.0 mph 1.0 mph 100 % 0.00 in
01:21 73.9 °F 73.9 °F 29.97 in Calm   1.0 mph 100 % 0.00 in
01:26 73.9 °F 73.9 °F 29.97 in Calm   1.0 mph 100 % 0.00 in
01:31 73.9 °F 73.6 °F 29.97 in Calm   1.0 mph 99 % 0.00 in
01:36 73.9 °F 73.6 °F 29.97 in Calm   1.0 mph 99 % 0.00 in
01:41 73.8 °F 73.4 °F 29.96 in Calm   1.0 mph 99 % 0.00 in
01:46 73.9 °F 73.9 °F 29.96 in Calm     100 % 0.00 in
01:51 73.9 °F 73.6 °F 29.96 in Calm     99 % 0.00 in
01:56 73.9 °F 73.6 °F 29.96 in Calm     99 % 0.00 in
02:01 73.9 °F 73.6 °F 29.96 in Calm     99 % 0.00 in
02:06 73.8 °F 73.4 °F 29.96 in SE 1.0 mph   99 % 0.00 in
02:11 73.8 °F 73.4 °F 29.95 in Calm   2.0 mph 99 % 0.00 in
02:16 73.8 °F 73.4 °F 29.95 in Calm   2.0 mph 99 % 0.00 in
02:21 73.6 °F 73.2 °F 29.95 in Calm   2.0 mph 99 % 0.00 in
02:26 73.6 °F 73.2 °F 29.95 in Calm   2.0 mph 99 % 0.00 in
02:31 73.6 °F 73.2 °F 29.95 in Calm   1.0 mph 99 % 0.00 in
02:36 73.6 °F 73.2 °F 29.95 in Calm   1.0 mph 99 % 0.00 in
02:41 73.6 °F 73.6 °F 29.95 in Calm     100 % 0.00 in
02:46 73.6 °F 73.6 °F 29.95 in Calm     100 % 0.00 in
02:51 73.6 °F 73.2 °F 29.94 in Calm   1.0 mph 99 % 0.00 in
02:56 73.6 °F 73.2 °F 29.94 in Calm   1.0 mph 99 % 0.00 in
03:01 73.6 °F 73.2 °F 29.94 in Calm   1.0 mph 99 % 0.00 in
03:06 73.6 °F 73.2 °F 29.94 in Calm   1.0 mph 99 % 0.00 in
03:11 73.6 °F 73.6 °F 29.94 in Calm   2.0 mph 100 % 0.00 in
03:16 73.6 °F 73.6 °F 29.94 in Calm   2.0 mph 100 % 0.00 in
03:21 73.6 °F 73.2 °F 29.94 in Calm   2.0 mph 99 % 0.00 in
03:26 73.2 °F 72.9 °F 29.94 in Calm   1.0 mph 99 % 0.00 in
03:31 73.2 °F 72.9 °F 29.95 in Calm   2.0 mph 99 % 0.00 in
03:36 73.2 °F 72.9 °F 29.95 in Calm   2.0 mph 99 % 0.00 in
03:41 73.2 °F 72.9 °F 29.95 in NW 1.0 mph 2.0 mph 99 % 0.00 in
03:46 73.0 °F 72.7 °F 29.95 in Calm   2.0 mph 99 % 0.00 in
03:51 73.0 °F 72.7 °F 29.95 in Calm   2.0 mph 99 % 0.00 in
03:56 73.0 °F 72.7 °F 29.95 in Calm   2.0 mph 99 % 0.00 in
04:02 73.0 °F 73.0 °F 29.95 in Calm   2.0 mph 100 % 0.00 in
04:07 73.2 °F 73.2 °F 29.95 in Calm     100 % 0.00 in
04:12 73.2 °F 73.2 °F 29.95 in WNW 1.0 mph   100 % 0.00 in
04:17 73.2 °F 72.9 °F 29.94 in NW 1.0 mph 2.0 mph 99 % 0.00 in
04:22 73.0 °F 72.7 °F 29.95 in Calm   2.0 mph 99 % 0.00 in
04:27 73.0 °F 72.7 °F 29.95 in NW 1.0 mph 2.0 mph 99 % 0.00 in
04:32 73.0 °F 72.7 °F 29.95 in Calm   3.0 mph 99 % 0.00 in
04:37 73.0 °F 72.7 °F 29.95 in Calm   3.0 mph 99 % 0.00 in
04:42 73.0 °F 72.7 °F 29.95 in Calm   3.0 mph 99 % 0.00 in
04:47 73.0 °F 72.7 °F 29.95 in NNW 1.0 mph 3.0 mph 99 % 0.00 in
04:52 73.0 °F 72.7 °F 29.95 in NNW 2.0 mph 2.0 mph 99 % 0.00 in
04:57 73.0 °F 72.7 °F 29.95 in NNW 2.0 mph 2.0 mph 99 % 0.00 in
05:02 73.0 °F 72.7 °F 29.95 in NW 2.0 mph 3.0 mph 99 % 0.00 in
05:07 73.0 °F 72.7 °F 29.95 in NNW 2.0 mph 3.0 mph 99 % 0.00 in
05:12 73.0 °F 72.7 °F 29.96 in NNW 3.0 mph 3.0 mph 99 % 0.00 in
05:17 73.2 °F 72.9 °F 29.96 in Calm   4.0 mph 99 % 0.00 in
05:22 73.2 °F 72.9 °F 29.96 in NW 1.0 mph 5.0 mph 99 % 0.00 in
05:27 73.0 °F 72.7 °F 29.96 in NW 1.0 mph 5.0 mph 99 % 0.00 in
05:32 73.0 °F 72.7 °F 29.96 in NNW 2.0 mph 5.0 mph 99 % 0.00 in
05:37 73.0 °F 72.7 °F 29.96 in WNW 2.0 mph 6.0 mph 99 % 0.00 in
05:42 72.9 °F 72.5 °F 29.96 in NW 1.0 mph 6.0 mph 99 % 0.00 in
05:47 72.9 °F 72.5 °F 29.96 in Calm   6.0 mph 99 % 0.00 in
05:52 72.9 °F 72.5 °F 29.96 in Calm   5.0 mph 99 % 0.00 in
05:57 72.9 °F 72.5 °F 29.96 in NW 1.0 mph 3.0 mph 99 % 0.00 in
06:02 72.9 °F 72.5 °F 29.96 in NW 2.0 mph 4.0 mph 99 % 0.00 in
06:07 73.0 °F 72.7 °F 29.96 in Calm   4.0 mph 99 % 0.00 in
06:12 73.0 °F 72.7 °F 29.96 in Calm   4.0 mph 99 % 0.00 in
06:17 73.0 °F 72.7 °F 29.96 in Calm   3.0 mph 99 % 0.00 in
06:22 73.0 °F 72.7 °F 29.96 in Calm   2.0 mph 99 % 0.00 in
06:27 73.0 °F 72.7 °F 29.96 in Calm   2.0 mph 99 % 0.00 in
06:32 73.0 °F 72.7 °F 29.96 in Calm   1.0 mph 99 % 0.00 in
06:37 73.0 °F 72.7 °F 29.96 in Calm   1.0 mph 99 % 0.00 in
06:42 73.0 °F 72.7 °F 29.96 in Calm   1.0 mph 99 % 0.00 in
06:47 73.0 °F 72.7 °F 29.96 in Calm   2.0 mph 99 % 0.00 in
06:52 73.0 °F 72.7 °F 29.96 in Calm   2.0 mph 99 % 0.00 in
06:57 73.2 °F 72.9 °F 29.96 in NNW 1.0 mph 2.0 mph 99 % 0.00 in
07:02 73.2 °F 72.9 °F 29.96 in Calm   2.0 mph 99 % 0.00 in
07:07 73.2 °F 72.9 °F 29.96 in Calm   2.0 mph 99 % 0.00 in
07:12 73.2 °F 72.9 °F 29.96 in Calm   2.0 mph 99 % 0.00 in
07:17 73.4 °F 73.0 °F 29.95 in Calm   1.0 mph 99 % 0.00 in
07:22 73.4 °F 73.0 °F 29.95 in Calm   1.0 mph 99 % 0.00 in
07:27 73.4 °F 73.0 °F 29.95 in Calm   1.0 mph 99 % 0.00 in
07:32 73.4 °F 73.0 °F 29.95 in Calm   1.0 mph 99 % 0.00 in
07:37 73.6 °F 73.2 °F 29.95 in Calm   1.0 mph 99 % 0.00 in
07:38 73.6 °F 73.2 °F 29.95 in Calm   1.0 mph 99 % 0.00 in
07:43 73.8 °F 73.8 °F 29.95 in Calm   1.0 mph 100 % 0.00 in
07:48 73.9 °F 73.9 °F 29.95 in Calm   1.0 mph 100 % 0.00 in
07:53 74.1 °F 74.1 °F 29.96 in ENE 1.0 mph 1.0 mph 100 % 0.00 in
07:58 74.1 °F 74.1 °F 29.96 in ESE 1.0 mph 2.0 mph 100 % 0.00 in
08:03 74.1 °F 73.8 °F 29.96 in Calm   2.0 mph 99 % 0.00 in
08:08 74.1 °F 73.8 °F 29.96 in Calm   2.0 mph 99 % 0.00 in
08:13 74.3 °F 73.9 °F 29.96 in Calm   2.0 mph 99 % 0.00 in
08:18 74.8 °F 74.8 °F 29.96 in Calm   1.0 mph 100 % 0.00 in
08:23 75.0 °F 74.7 °F 29.96 in NW 2.0 mph 4.0 mph 99 % 0.00 in
08:28 75.0 °F 74.7 °F 29.96 in NNW 2.0 mph 4.0 mph 99 % 0.00 in
08:33 75.2 °F 74.8 °F 29.97 in NW 2.0 mph 5.0 mph 99 % 0.00 in
08:34 75.2 °F 74.8 °F 29.97 in WSW 1.0 mph 5.0 mph 99 % 0.00 in
08:38 75.2 °F 74.7 °F 29.96 in WNW 1.0 mph 5.0 mph 98 % 0.00 in
08:44 75.2 °F 74.7 °F 29.97 in NNE 1.0 mph 5.0 mph 98 % 0.00 in
08:49 75.7 °F 75.2 °F 29.97 in Calm   4.0 mph 98 % 0.00 in
08:54 76.5 °F 76.1 °F 29.97 in Calm   4.0 mph 99 % 0.00 in
08:59 76.5 °F 75.6 °F 29.97 in NNW 1.0 mph 4.0 mph 97 % 0.00 in
09:04 76.5 °F 75.6 °F 29.96 in NNW 3.0 mph 4.0 mph 97 % 0.00 in
09:09 76.6 °F 75.4 °F 29.97 in NNW 2.0 mph 4.0 mph 96 % 0.00 in
09:14 77.2 °F 76.3 °F 29.97 in NNW 1.0 mph 4.0 mph 97 % 0.00 in
09:19 77.7 °F 76.1 °F 29.97 in NW 2.0 mph 4.0 mph 95 % 0.00 in
09:24 78.3 °F 76.5 °F 29.97 in WNW 1.0 mph 4.0 mph 94 % 0.00 in
09:29 78.6 °F 76.5 °F 29.97 in NW 2.0 mph 4.0 mph 93 % 0.00 in
09:34 79.2 °F 76.6 °F 29.97 in WNW 1.0 mph 4.0 mph 92 % 0.00 in
09:39 79.9 °F 76.6 °F 29.97 in North 2.0 mph 6.0 mph 90 % 0.00 in
09:44 80.4 °F 77.2 °F 29.97 in WNW 1.0 mph 6.0 mph 90 % 0.00 in
09:49 80.8 °F 76.3 °F 29.97 in NNW 3.0 mph 6.0 mph 86 % 0.00 in
09:54 81.0 °F 76.5 °F 29.97 in North 3.0 mph 5.0 mph 86 % 0.00 in
09:59 81.3 °F 76.6 °F 29.97 in NW 2.0 mph 5.0 mph 86 % 0.00 in
10:04 81.7 °F 75.9 °F 29.97 in West 2.0 mph 5.0 mph 83 % 0.00 in
10:09 81.9 °F 75.7 °F 29.97 in NE 2.0 mph 6.0 mph 82 % 0.00 in
10:14 82.2 °F 76.1 °F 29.97 in WNW 1.0 mph 6.0 mph 82 % 0.00 in
10:19 82.6 °F 76.5 °F 29.96 in Calm   6.0 mph 82 % 0.00 in
10:24 82.8 °F 75.6 °F 29.96 in Calm   5.0 mph 79 % 0.00 in
10:29 82.9 °F 75.7 °F 29.96 in NW 3.0 mph 5.0 mph 79 % 0.00 in
10:34 82.8 °F 75.6 °F 29.96 in NW 3.0 mph 5.0 mph 79 % 0.00 in
10:39 82.9 °F 75.7 °F 29.96 in NW 2.0 mph 5.0 mph 79 % 0.00 in
10:44 82.9 °F 76.1 °F 29.96 in NW 2.0 mph 5.0 mph 80 % 0.00 in
10:49 83.5 °F 76.3 °F 29.96 in WNW 3.0 mph 5.0 mph 79 % 0.00 in
10:54 83.8 °F 76.6 °F 29.96 in NW 4.0 mph 6.0 mph 79 % 0.00 in
10:59 84.2 °F 75.7 °F 29.96 in ENE 2.0 mph 6.0 mph 76 % 0.00 in
11:04 84.6 °F 77.0 °F 29.96 in Calm   6.0 mph 78 % 0.00 in
11:09 85.1 °F 76.6 °F 29.96 in NW 1.0 mph 5.0 mph 76 % 0.00 in
11:11 85.1 °F 76.3 °F 29.96 in NW 1.0 mph 6.0 mph 75 % 0.00 in
11:16 85.5 °F 76.6 °F 29.96 in NNW 5.0 mph 6.0 mph 75 % 0.00 in
11:21 85.6 °F 75.9 °F 29.96 in NNW 2.0 mph 6.0 mph 73 % 0.00 in
11:26 86.0 °F 77.2 °F 29.96 in ENE 1.0 mph 6.0 mph 75 % 0.00 in
11:31 86.4 °F 77.0 °F 29.96 in WNW 2.0 mph 7.0 mph 74 % 0.00 in
11:36 86.5 °F 76.8 °F 29.96 in NW 3.0 mph 7.0 mph 73 % 0.00 in
11:41 86.4 °F 76.6 °F 29.96 in NW 2.0 mph 7.0 mph 73 % 0.00 in
11:46 86.4 °F 76.3 °F 29.96 in NW 1.0 mph 5.0 mph 72 % 0.00 in
11:51 86.2 °F 76.5 °F 29.96 in NNW 3.0 mph 5.0 mph 73 % 0.00 in
11:56 86.4 °F 75.9 °F 29.96 in WNW 3.0 mph 5.0 mph 71 % 0.00 in
12:01 86.0 °F 76.8 °F 29.96 in ENE 2.0 mph 6.0 mph 74 % 0.00 in
12:06 85.8 °F 76.1 °F 29.96 in WNW 1.0 mph 6.0 mph 73 % 0.00 in
12:11 85.6 °F 76.5 °F 29.96 in NW 3.0 mph 6.0 mph 74 % 0.00 in
12:16 85.6 °F 75.9 °F 29.96 in SSW 1.0 mph 5.0 mph 73 % 0.00 in
12:21 85.8 °F 77.4 °F 29.95 in Calm   5.0 mph 76 % 0.00 in
12:26 86.5 °F 77.7 °F 29.95 in SW 1.0 mph 4.0 mph 75 % 0.00 in
12:31 86.4 °F 77.0 °F 29.95 in Calm   5.0 mph 74 % 0.00 in
12:36 86.5 °F 77.7 °F 29.95 in West 1.0 mph 5.0 mph 75 % 0.00 in
12:41 86.7 °F 76.6 °F 29.95 in Calm   5.0 mph 72 % 0.00 in
12:46 87.1 °F 77.0 °F 29.95 in NW 2.0 mph 3.0 mph 72 % 0.00 in
12:51 87.1 °F 76.5 °F 29.95 in NW 2.0 mph 4.0 mph 71 % 0.00 in
12:56 87.3 °F 76.3 °F 29.94 in Calm   5.0 mph 70 % 0.00 in
12:57 87.3 °F 76.3 °F 29.94 in Calm   5.0 mph 70 % 0.00 in
13:02 88.3 °F 77.7 °F 29.94 in ENE 2.0 mph 5.0 mph 71 % 0.00 in
13:07 88.7 °F 76.8 °F 29.94 in North 3.0 mph 5.0 mph 68 % 0.00 in
13:12 88.3 °F 76.8 °F 29.93 in NNW 2.0 mph 5.0 mph 69 % 0.00 in
13:17 88.3 °F 76.5 °F 29.93 in Calm   5.0 mph 68 % 0.00 in
13:22 88.5 °F 76.6 °F 29.93 in NNW 2.0 mph 5.0 mph 68 % 0.00 in
13:23 88.7 °F 77.7 °F 29.93 in Calm   5.0 mph 70 % 0.00 in
13:28 89.2 °F 76.8 °F 29.93 in ENE 1.0 mph 5.0 mph 67 % 0.00 in
13:33 89.8 °F 77.4 °F 29.93 in NNW 3.0 mph 5.0 mph 67 % 0.00 in
13:38 89.8 °F 76.5 °F 29.93 in ESE 2.0 mph 5.0 mph 65 % 0.00 in
13:43 89.8 °F 75.6 °F 29.93 in Calm   5.0 mph 63 % 0.00 in
13:44 90.0 °F 77.5 °F 29.93 in NNE 1.0 mph 5.0 mph 67 % 0.00 in
13:49 90.0 °F 76.1 °F 29.93 in NE 2.0 mph 5.0 mph 64 % 0.00 in
13:54 89.4 °F 76.1 °F 29.92 in East 2.0 mph 6.0 mph 65 % 0.00 in
13:59 89.6 °F 76.3 °F 29.92 in ENE 2.0 mph 6.0 mph 65 % 0.00 in
14:04 90.0 °F 76.1 °F 29.92 in NE 2.0 mph 6.0 mph 64 % 0.00 in
14:09 90.0 °F 75.2 °F 29.92 in Calm   6.0 mph 62 % 0.00 in
14:14 90.5 °F 77.2 °F 29.92 in East 1.0 mph 6.0 mph 65 % 0.00 in
14:19 90.9 °F 76.5 °F 29.92 in ENE 2.0 mph 6.0 mph 63 % 0.00 in
14:24 91.0 °F 75.7 °F 29.91 in WNW 4.0 mph 5.0 mph 61 % 0.00 in
14:29 91.2 °F 75.4 °F 29.92 in WNW 2.0 mph 5.0 mph 60 % 0.00 in
14:34 91.6 °F 76.3 °F 29.91 in Calm   5.0 mph 61 % 0.00 in
14:39 91.6 °F 75.2 °F 29.91 in SE 3.0 mph 5.0 mph 59 % 0.00 in
14:44 91.2 °F 76.3 °F 29.91 in WNW 1.0 mph 5.0 mph 62 % 0.00 in
14:49 91.6 °F 78.1 °F 29.91 in ESE 3.0 mph 5.0 mph 65 % 0.00 in
14:54 91.4 °F 75.6 °F 29.91 in North 1.0 mph 6.0 mph 60 % 0.00 in
15:00 91.6 °F 76.6 °F 29.91 in East 2.0 mph 7.0 mph 62 % 0.00 in
15:05 91.6 °F 76.3 °F 29.91 in ESE 3.0 mph 7.0 mph 61 % 0.00 in
15:09 91.4 °F 75.6 °F 29.90 in ENE 1.0 mph 7.0 mph 60 % 0.00 in
15:14 91.8 °F 76.5 °F 29.90 in NNW 7.0 mph 7.0 mph 61 % 0.00 in
15:19 91.2 °F 75.9 °F 29.90 in East 1.0 mph 8.0 mph 61 % 0.00 in
15:24 91.6 °F 76.3 °F 29.89 in NW 4.0 mph 8.0 mph 61 % 0.00 in
15:29 91.8 °F 77.4 °F 29.89 in Calm   8.0 mph 63 % 0.00 in
15:35 92.1 °F 76.6 °F 29.89 in East 1.0 mph 7.0 mph 61 % 0.00 in
15:40 91.9 °F 76.1 °F 29.89 in NW 2.0 mph 6.0 mph 60 % 0.00 in
15:45 91.9 °F 76.1 °F 29.89 in SE 5.0 mph 5.0 mph 60 % 0.00 in
15:50 91.6 °F 77.2 °F 29.89 in ESE 4.0 mph 9.0 mph 63 % 0.00 in
15:55 91.4 °F 76.5 °F 29.89 in SW 1.0 mph 9.0 mph 62 % 0.00 in
16:00 91.6 °F 75.2 °F 29.89 in Calm   8.0 mph 59 % 0.00 in
16:05 91.6 °F 75.2 °F 29.89 in SSE 4.0 mph 6.0 mph 59 % 0.00 in
16:10 91.8 °F 75.4 °F 29.89 in ESE 1.0 mph 6.0 mph 59 % 0.00 in
16:15 91.9 °F 76.1 °F 29.88 in Calm   6.0 mph 60 % 0.00 in
16:20 91.9 °F 76.1 °F 29.88 in North 3.0 mph 5.0 mph 60 % 0.00 in
16:25 92.1 °F 75.2 °F 29.88 in ENE 1.0 mph 6.0 mph 58 % 0.00 in
16:30 91.9 °F 75.6 °F 29.87 in East 2.0 mph 6.0 mph 59 % 0.00 in
16:35 92.1 °F 75.2 °F 29.87 in East 1.0 mph 6.0 mph 58 % 0.00 in
16:40 92.1 °F 75.2 °F 29.87 in Calm   5.0 mph 58 % 0.00 in
16:45 91.9 °F 75.6 °F 29.86 in Calm   5.0 mph 59 % 0.00 in
16:50 92.5 °F 75.0 °F 29.86 in NW 2.0 mph 6.0 mph 57 % 0.00 in
16:55 92.1 °F 75.2 °F 29.86 in NNW 2.0 mph 6.0 mph 58 % 0.00 in
17:00 92.1 °F 75.7 °F 29.86 in East 1.0 mph 6.0 mph 59 % 0.00 in
17:05 92.5 °F 75.0 °F 29.86 in WNW 1.0 mph 6.0 mph 57 % 0.00 in
17:10 92.8 °F 74.8 °F 29.86 in Calm   4.0 mph 56 % 0.00 in
17:15 93.0 °F 75.0 °F 29.86 in ESE 2.0 mph 5.0 mph 56 % 0.00 in
17:20 92.5 °F 75.0 °F 29.86 in NE 5.0 mph 7.0 mph 57 % 0.00 in
17:25 92.5 °F 76.1 °F 29.86 in West 2.0 mph 7.0 mph 59 % 0.00 in
17:30 92.5 °F 75.0 °F 29.85 in SE 2.0 mph 7.0 mph 57 % 0.00 in
17:35 92.7 °F 75.2 °F 29.85 in WSW 1.0 mph 7.0 mph 57 % 0.00 in
17:40 92.7 °F 75.2 °F 29.85 in NW 3.0 mph 7.0 mph 57 % 0.00 in
17:45 92.7 °F 74.7 °F 29.85 in WNW 2.0 mph 7.0 mph 56 % 0.00 in
17:47 92.8 °F 75.4 °F 29.85 in NNW 1.0 mph 7.0 mph 57 % 0.00 in
17:52 93.0 °F 74.5 °F 29.84 in NE 1.0 mph 7.0 mph 55 % 0.00 in
17:57 92.8 °F 74.3 °F 29.84 in East 2.0 mph 7.0 mph 55 % 0.00 in
18:02 92.8 °F 75.4 °F 29.84 in North 2.0 mph 6.0 mph 57 % 0.00 in
18:07 93.2 °F 75.7 °F 29.84 in ENE 2.0 mph 6.0 mph 57 % 0.00 in
18:12 93.0 °F 75.0 °F 29.83 in WNW 1.0 mph 5.0 mph 56 % 0.00 in
18:17 92.8 °F 75.4 °F 29.84 in NNW 3.0 mph 5.0 mph 57 % 0.00 in
18:22 93.0 °F 75.6 °F 29.83 in North 1.0 mph 5.0 mph 57 % 0.00 in
18:26 93.0 °F 75.6 °F 29.83 in WNW 1.0 mph 4.0 mph 57 % 0.00 in
18:31 93.6 °F 76.1 °F 29.83 in Calm   4.0 mph 57 % 0.00 in
18:37 93.0 °F 75.0 °F 29.83 in WNW 1.0 mph 5.0 mph 56 % 0.00 in
18:42 92.5 °F 73.9 °F 29.83 in Calm   5.0 mph 55 % 0.00 in
18:47 92.8 °F 74.8 °F 29.84 in NNW 2.0 mph 5.0 mph 56 % 0.00 in
18:52 92.5 °F 75.0 °F 29.84 in Calm   4.0 mph 57 % 0.00 in
18:57 92.1 °F 75.2 °F 29.84 in NNW 1.0 mph 4.0 mph 58 % 0.00 in
19:02 91.8 °F 74.8 °F 29.84 in ENE 2.0 mph 4.0 mph 58 % 0.00 in
19:07 91.4 °F 75.0 °F 29.84 in ENE 2.0 mph 4.0 mph 59 % 0.00 in
19:12 91.2 °F 75.4 °F 29.84 in NNW 1.0 mph 5.0 mph 60 % 0.00 in
19:17 90.9 °F 75.0 °F 29.84 in ENE 2.0 mph 6.0 mph 60 % 0.00 in
19:22 90.7 °F 75.4 °F 29.85 in Calm   6.0 mph 61 % 0.00 in
19:27 90.1 °F 75.4 °F 29.85 in ENE 2.0 mph 6.0 mph 62 % 0.00 in
19:32 89.8 °F 75.9 °F 29.85 in NW 2.0 mph 6.0 mph 64 % 0.00 in
19:37 89.2 °F 75.4 °F 29.85 in Calm   6.0 mph 64 % 0.00 in
19:42 88.9 °F 75.6 °F 29.85 in NNW 1.0 mph 5.0 mph 65 % 0.00 in
19:47 88.5 °F 75.2 °F 29.85 in NE 1.0 mph 4.0 mph 65 % 0.00 in
19:52 88.3 °F 75.6 °F 29.85 in Calm   4.0 mph 66 % 0.00 in
19:57 88.2 °F 75.7 °F 29.85 in NW 1.0 mph 4.0 mph 67 % 0.00 in
20:02 87.8 °F 75.4 °F 29.85 in ENE 1.0 mph 5.0 mph 67 % 0.00 in
20:07 87.6 °F 75.4 °F 29.85 in Calm   5.0 mph 67 % 0.00 in
20:12 87.4 °F 75.6 °F 29.85 in Calm   5.0 mph 68 % 0.00 in
20:17 87.3 °F 75.4 °F 29.85 in Calm   4.0 mph 68 % 0.00 in
20:22 87.1 °F 75.7 °F 29.85 in NNW 1.0 mph 4.0 mph 69 % 0.00 in
20:27 86.9 °F 75.6 °F 29.85 in Calm   3.0 mph 69 % 0.00 in
20:32 86.7 °F 75.7 °F 29.85 in East 2.0 mph 3.0 mph 70 % 0.00 in
20:37 86.5 °F 75.6 °F 29.85 in East 1.0 mph 3.0 mph 70 % 0.00 in
20:42 86.5 °F 75.6 °F 29.85 in SE 1.0 mph 3.0 mph 70 % 0.00 in
20:47 86.4 °F 75.4 °F 29.85 in East 3.0 mph 4.0 mph 70 % 0.00 in
20:52 86.4 °F 75.4 °F 29.85 in SE 1.0 mph 4.0 mph 70 % 0.00 in
20:58 86.2 °F 75.2 °F 29.84 in SE 3.0 mph 4.0 mph 70 % 0.00 in
21:03 86.2 °F 75.2 °F 29.84 in SE 1.0 mph 5.0 mph 70 % 0.00 in
21:08 85.8 °F 75.4 °F 29.85 in Calm   5.0 mph 71 % 0.00 in
21:13 85.6 °F 75.2 °F 29.85 in Calm   5.0 mph 71 % 0.00 in
21:18 85.6 °F 75.2 °F 29.85 in Calm   5.0 mph 71 % 0.00 in
21:23 85.5 °F 75.0 °F 29.85 in Calm   3.0 mph 71 % 0.00 in
21:28 85.5 °F 75.4 °F 29.86 in Calm   1.0 mph 72 % 0.00 in
21:33 85.5 °F 75.7 °F 29.86 in SE 2.0 mph 2.0 mph 73 % 0.00 in
21:38 85.5 °F 76.3 °F 29.86 in SSE 2.0 mph 4.0 mph 74 % 0.00 in
21:43 85.3 °F 76.5 °F 29.86 in SSE 3.0 mph 7.0 mph 75 % 0.00 in
21:48 85.1 °F 76.6 °F 29.86 in SSE 2.0 mph 7.0 mph 76 % 0.00 in
21:53 84.9 °F 76.5 °F 29.86 in SSE 1.0 mph 7.0 mph 76 % 0.00 in
21:58 84.7 °F 76.6 °F 29.87 in SSE 3.0 mph 5.0 mph 77 % 0.00 in
22:03 84.4 °F 76.8 °F 29.87 in SSW 4.0 mph 5.0 mph 78 % 0.00 in
22:08 84.0 °F 76.8 °F 29.87 in South 2.0 mph 7.0 mph 79 % 0.00 in
22:13 83.8 °F 76.6 °F 29.88 in South 1.0 mph 7.0 mph 79 % 0.00 in
22:18 83.7 °F 76.8 °F 29.88 in Calm   7.0 mph 80 % 0.00 in
22:23 83.5 °F 76.6 °F 29.88 in SSE 1.0 mph 7.0 mph 80 % 0.00 in
22:28 83.1 °F 76.6 °F 29.88 in Calm   6.0 mph 81 % 0.00 in
22:33 82.9 °F 76.5 °F 29.89 in SSW 2.0 mph 6.0 mph 81 % 0.00 in
22:38 82.6 °F 76.5 °F 29.89 in Calm   5.0 mph 82 % 0.00 in
22:43 82.2 °F 76.1 °F 29.89 in SW 1.0 mph 2.0 mph 82 % 0.00 in
22:48 82.0 °F 76.3 °F 29.89 in SSW 2.0 mph 3.0 mph 83 % 0.00 in
22:53 81.9 °F 76.1 °F 29.90 in SSE 1.0 mph 4.0 mph 83 % 0.00 in
22:58 81.7 °F 75.9 °F 29.90 in SW 3.0 mph 4.0 mph 83 % 0.00 in
23:03 81.7 °F 75.9 °F 29.90 in SSE 2.0 mph 4.0 mph 83 % 0.00 in
23:08 81.7 °F 76.3 °F 29.91 in SSE 2.0 mph 5.0 mph 84 % 0.00 in
23:13 81.7 °F 76.3 °F 29.91 in SE 1.0 mph 5.0 mph 84 % 0.00 in
23:18 81.7 °F 76.3 °F 29.91 in SSE 2.0 mph 5.0 mph 84 % 0.00 in
23:23 81.5 °F 76.3 °F 29.91 in South 1.0 mph 3.0 mph 84 % 0.00 in
23:26 81.3 °F 76.1 °F 29.91 in South 2.0 mph 3.0 mph 84 % 0.00 in
23:31 81.1 °F 75.9 °F 29.91 in Calm   3.0 mph 84 % 0.00 in
23:36 81.0 °F 75.7 °F 29.91 in Calm   3.0 mph 84 % 0.00 in
23:41 81.0 °F 76.1 °F 29.91 in SSW 3.0 mph 3.0 mph 85 % 0.00 in
23:46 80.8 °F 75.9 °F 29.91 in South 1.0 mph 4.0 mph 85 % 0.00 in
23:51 80.8 °F 75.9 °F 29.92 in SSW 1.0 mph 4.0 mph 85 % 0.00 in
23:56 80.8 °F 75.9 °F 29.92 in Calm   4.0 mph 85 % 0.00 in
Spring, Texas: Villages of Bridgestone
Compliments of Weather Underground - 2.75 mb

Script developed by  Jim McMurry - jmcmurry@mwt.net Adapted for the template by  Wim van der Kuil - Leuven-Template.eu

You find our weather info also at:

UK Metoffice

WeatherCloud

Weather Underground

Mid-South Weather Network

AWEKAS

Citizen Weather Observer Program (CWOP)

HAMweather, WeatherForYou, PWS Weather

Equipment we use:

Weather-station
Davis Vantage Vue

Weather-program
Meteohub

Weather-server
Debian 7.9 x86 (Guest)

Provider
DreamHost

Davis Vantage Vue

Meteohub

Debian 7.9 x86 (Guest)

DreamHost